sensor_id;sensor_type;location;lat;lon;timestamp;pressure;altitude;pressure_sealevel;temperature;humidity
11888;BME280;6003;42.756;23.130;2023-03-04T00:00:46;153664.78;;;4.88;100.00
11888;BME280;6003;42.756;23.130;2023-03-04T00:03:13;153621.34;;;4.71;100.00
11888;BME280;6003;42.756;23.130;2023-03-04T00:05:42;153612.16;;;4.67;100.00
11888;BME280;6003;42.756;23.130;2023-03-04T00:08:09;153617.44;;;4.69;100.00
11888;BME280;6003;42.756;23.130;2023-03-04T00:10:36;153633.22;;;4.75;100.00
11888;BME280;6003;42.756;23.130;2023-03-04T00:13:03;153629.25;;;4.74;100.00
11888;BME280;6003;42.756;23.130;2023-03-04T00:15:30;153630.56;;;4.74;100.00
11888;BME280;6003;42.756;23.130;2023-03-04T00:17:57;153626.63;;;4.73;100.00
11888;BME280;6003;42.756;23.130;2023-03-04T00:20:23;153620.06;;;4.70;100.00
11888;BME280;6003;42.756;23.130;2023-03-04T00:22:52;153622.66;;;4.71;100.00
11888;BME280;6003;42.756;23.130;2023-03-04T00:25:22;153622.66;;;4.71;100.00
11888;BME280;6003;42.756;23.130;2023-03-04T00:27:49;153608.19;;;4.66;100.00
11888;BME280;6003;42.756;23.130;2023-03-04T00:30:16;153595.06;;;4.61;100.00
11888;BME280;6003;42.756;23.130;2023-03-04T00:32:43;153596.38;;;4.61;100.00
11888;BME280;6003;42.756;23.130;2023-03-04T00:35:10;153600.31;;;4.63;100.00
11888;BME280;6003;42.756;23.130;2023-03-04T00:37:36;153600.31;;;4.63;100.00
11888;BME280;6003;42.756;23.130;2023-03-04T00:40:06;153605.59;;;4.65;100.00
11888;BME280;6003;42.756;23.130;2023-03-04T00:42:33;153595.06;;;4.61;100.00
11888;BME280;6003;42.756;23.130;2023-03-04T00:45:00;153602.97;;;4.64;100.00
11888;BME280;6003;42.756;23.130;2023-03-04T00:47:27;153592.41;;;4.60;100.00
11888;BME280;6003;42.756;23.130;2023-03-04T00:49:54;153584.53;;;4.57;100.00
11888;BME280;6003;42.756;23.130;2023-03-04T00:52:21;153576.63;;;4.53;100.00
11888;BME280;6003;42.756;23.130;2023-03-04T00:54:47;153563.47;;;4.48;100.00
11888;BME280;6003;42.756;23.130;2023-03-04T00:57:16;153556.88;;;4.46;100.00
11888;BME280;6003;42.756;23.130;2023-03-04T00:59:43;153563.47;;;4.48;100.00
11888;BME280;6003;42.756;23.130;2023-03-04T01:02:11;153560.88;;;4.47;100.00
11888;BME280;6003;42.756;23.130;2023-03-04T01:04:38;153556.88;;;4.46;100.00
11888;BME280;6003;42.756;23.130;2023-03-04T01:07:06;153555.59;;;4.45;100.00
11888;BME280;6003;42.756;23.130;2023-03-04T01:09:33;153552.97;;;4.44;100.00
11888;BME280;6003;42.756;23.130;2023-03-04T01:12:00;153549.00;;;4.43;100.00
11888;BME280;6003;42.756;23.130;2023-03-04T01:14:28;153563.47;;;4.48;100.00
11888;BME280;6003;42.756;23.130;2023-03-04T01:16:55;153566.13;;;4.49;100.00
11888;BME280;6003;42.756;23.130;2023-03-04T01:19:22;153570.06;;;4.51;100.00
11888;BME280;6003;42.756;23.130;2023-03-04T01:21:49;153560.88;;;4.47;100.00
11888;BME280;6003;42.756;23.130;2023-03-04T01:24:16;153574.03;;;4.52;100.00
11888;BME280;6003;42.756;23.130;2023-03-04T01:26:42;153559.56;;;4.47;100.00
11888;BME280;6003;42.756;23.130;2023-03-04T01:29:09;153584.53;;;4.57;100.00
11888;BME280;6003;42.756;23.130;2023-03-04T01:31:37;153601.66;;;4.63;100.00
11888;BME280;6003;42.756;23.130;2023-03-04T01:34:04;153599.00;;;4.62;100.00
11888;BME280;6003;42.756;23.130;2023-03-04T01:36:34;153610.84;;;4.67;100.00
11888;BME280;6003;42.756;23.130;2023-03-04T01:39:01;153618.75;;;4.70;100.00
11888;BME280;6003;42.756;23.130;2023-03-04T01:41:49;153596.38;;;4.61;100.00
11888;BME280;6003;42.756;23.130;2023-03-04T01:44:16;153589.81;;;4.59;100.00
11888;BME280;6003;42.756;23.130;2023-03-04T01:46:48;153583.22;;;4.56;100.00
11888;BME280;6003;42.756;23.130;2023-03-04T01:49:15;153595.06;;;4.61;100.00
11888;BME280;6003;42.756;23.130;2023-03-04T01:51:45;153587.19;;;4.58;100.00
11888;BME280;6003;42.756;23.130;2023-03-04T01:54:14;153570.06;;;4.51;100.00
11888;BME280;6003;42.756;23.130;2023-03-04T01:56:43;153562.16;;;4.48;100.00
11888;BME280;6003;42.756;23.130;2023-03-04T01:59:13;153534.53;;;4.37;100.00
11888;BME280;6003;42.756;23.130;2023-03-04T02:01:46;153522.72;;;4.33;100.00
11888;BME280;6003;42.756;23.130;2023-03-04T02:04:15;153521.44;;;4.32;100.00
11888;BME280;6003;42.756;23.130;2023-03-04T02:06:42;153506.97;;;4.26;100.00
11888;BME280;6003;42.756;23.130;2023-03-04T02:09:09;153505.66;;;4.26;100.00
11888;BME280;6003;42.756;23.130;2023-03-04T02:11:37;153499.06;;;4.23;100.00
11888;BME280;6003;42.756;23.130;2023-03-04T02:14:05;153503.00;;;4.25;100.00
11888;BME280;6003;42.756;23.130;2023-03-04T02:16:33;153492.50;;;4.21;100.00
11888;BME280;6003;42.756;23.130;2023-03-04T02:19:01;153489.81;;;4.20;100.00
11888;BME280;6003;42.756;23.130;2023-03-04T02:21:32;153471.44;;;4.13;100.00
11888;BME280;6003;42.756;23.130;2023-03-04T02:24:05;153449.09;;;4.04;100.00
11888;BME280;6003;42.756;23.130;2023-03-04T02:26:41;153429.34;;;3.96;100.00
11888;BME280;6003;42.756;23.130;2023-03-04T02:29:09;153434.63;;;3.98;100.00
11888;BME280;6003;42.756;23.130;2023-03-04T02:32:08;153426.75;;;3.95;100.00
11888;BME280;6003;42.756;23.130;2023-03-04T02:34:37;153441.22;;;4.01;100.00
11888;BME280;6003;42.756;23.130;2023-03-04T02:37:05;153449.09;;;4.04;100.00
11888;BME280;6003;42.756;23.130;2023-03-04T02:39:34;153447.78;;;4.03;100.00
11888;BME280;6003;42.756;23.130;2023-03-04T02:42:03;153463.56;;;4.10;100.00
11888;BME280;6003;42.756;23.130;2023-03-04T02:44:33;153450.41;;;4.04;100.00
11888;BME280;6003;42.756;23.130;2023-03-04T02:47:01;153460.94;;;4.09;100.00
11888;BME280;6003;42.756;23.130;2023-03-04T02:49:30;153450.41;;;4.04;100.00
11888;BME280;6003;42.756;23.130;2023-03-04T02:52:00;153458.28;;;4.07;100.00
11888;BME280;6003;42.756;23.130;2023-03-04T02:54:27;153470.13;;;4.12;100.00
11888;BME280;6003;42.756;23.130;2023-03-04T02:56:57;153453.00;;;4.05;100.00
11888;BME280;6003;42.756;23.130;2023-03-04T02:59:26;153447.78;;;4.03;100.00
11888;BME280;6003;42.756;23.130;2023-03-04T03:01:53;153466.16;;;4.11;100.00
11888;BME280;6003;42.756;23.130;2023-03-04T03:04:20;153483.28;;;4.17;100.00
11888;BME280;6003;42.756;23.130;2023-03-04T03:06:49;153489.81;;;4.20;100.00
11888;BME280;6003;42.756;23.130;2023-03-04T03:09:16;153497.72;;;4.23;100.00
11888;BME280;6003;42.756;23.130;2023-03-04T03:11:43;153468.84;;;4.12;100.00
11888;BME280;6003;42.756;23.130;2023-03-04T03:14:10;153471.44;;;4.13;100.00
11888;BME280;6003;42.756;23.130;2023-03-04T03:16:38;153466.16;;;4.11;100.00
11888;BME280;6003;42.756;23.130;2023-03-04T03:19:05;153464.88;;;4.10;100.00
11888;BME280;6003;42.756;23.130;2023-03-04T03:21:32;153468.84;;;4.12;100.00
11888;BME280;6003;42.756;23.130;2023-03-04T03:23:59;153483.28;;;4.17;100.00
11888;BME280;6003;42.756;23.130;2023-03-04T03:26:26;153489.81;;;4.20;100.00
11888;BME280;6003;42.756;23.130;2023-03-04T03:28:52;153481.94;;;4.17;100.00
11888;BME280;6003;42.756;23.130;2023-03-04T03:31:21;153495.09;;;4.22;100.00
11888;BME280;6003;42.756;23.130;2023-03-04T03:33:50;153505.66;;;4.26;100.00
11888;BME280;6003;42.756;23.130;2023-03-04T03:36:16;153485.91;;;4.18;100.00
11888;BME280;6003;42.756;23.130;2023-03-04T03:38:43;153476.72;;;4.15;100.00
11888;BME280;6003;42.756;23.130;2023-03-04T03:41:10;153495.09;;;4.22;100.00
11888;BME280;6003;42.756;23.130;2023-03-04T03:43:37;153495.09;;;4.22;100.00
11888;BME280;6003;42.756;23.130;2023-03-04T03:46:04;153503.00;;;4.25;100.00
11888;BME280;6003;42.756;23.130;2023-03-04T03:48:31;153497.72;;;4.23;100.00
11888;BME280;6003;42.756;23.130;2023-03-04T03:50:59;153500.38;;;4.24;100.00
11888;BME280;6003;42.756;23.130;2023-03-04T03:53:26;153467.47;;;4.11;100.00
11888;BME280;6003;42.756;23.130;2023-03-04T03:55:52;153460.94;;;4.09;100.00
11888;BME280;6003;42.756;23.130;2023-03-04T03:58:19;153418.84;;;3.92;100.00
11888;BME280;6003;42.756;23.130;2023-03-04T04:00:47;153408.31;;;3.88;100.00
11888;BME280;6003;42.756;23.130;2023-03-04T04:03:14;153376.78;;;3.76;100.00
11888;BME280;6003;42.756;23.130;2023-03-04T04:05:42;153374.16;;;3.75;100.00
11888;BME280;6003;42.756;23.130;2023-03-04T04:08:12;153357.06;;;3.68;100.00
11888;BME280;6003;42.756;23.130;2023-03-04T04:10:39;153337.38;;;3.60;100.00
11888;BME280;6003;42.756;23.130;2023-03-04T04:13:06;153305.84;;;3.48;100.00
11888;BME280;6003;42.756;23.130;2023-03-04T04:15:33;153262.47;;;3.31;100.00
11888;BME280;6003;42.756;23.130;2023-03-04T04:18:01;153219.09;;;3.14;100.00
11888;BME280;6003;42.756;23.130;2023-03-04T04:20:27;153228.28;;;3.18;100.00
11888;BME280;6003;42.756;23.130;2023-03-04T04:22:54;153216.44;;;3.13;100.00
11888;BME280;6003;42.756;23.130;2023-03-04T04:25:22;153198.06;;;3.06;100.00
11888;BME280;6003;42.756;23.130;2023-03-04T04:27:49;153173.13;;;2.97;100.00
11888;BME280;6003;42.756;23.130;2023-03-04T04:30:16;153167.88;;;2.94;100.00
11888;BME280;6003;42.756;23.130;2023-03-04T04:32:43;153140.28;;;2.84;100.00
11888;BME280;6003;42.756;23.130;2023-03-04T04:35:10;153129.78;;;2.80;100.00
11888;BME280;6003;42.756;23.130;2023-03-04T04:37:37;153132.41;;;2.81;100.00
11888;BME280;6003;42.756;23.130;2023-03-04T04:40:04;153145.53;;;2.86;100.00
11888;BME280;6003;42.756;23.130;2023-03-04T04:42:33;153133.72;;;2.81;100.00
11888;BME280;6003;42.756;23.130;2023-03-04T04:44:59;153131.09;;;2.80;100.00
11888;BME280;6003;42.756;23.130;2023-03-04T04:47:26;153133.72;;;2.81;100.00
11888;BME280;6003;42.756;23.130;2023-03-04T04:49:53;153123.22;;;2.77;100.00
11888;BME280;6003;42.756;23.130;2023-03-04T04:52:20;153077.25;;;2.59;100.00
11888;BME280;6003;42.756;23.130;2023-03-04T04:54:47;153053.59;;;2.50;100.00
11888;BME280;6003;42.756;23.130;2023-03-04T04:57:14;153040.50;;;2.45;100.00
11888;BME280;6003;42.756;23.130;2023-03-04T04:59:42;153049.69;;;2.48;100.00
11888;BME280;6003;42.756;23.130;2023-03-04T05:02:10;153050.97;;;2.49;100.00
11888;BME280;6003;42.756;23.130;2023-03-04T05:04:37;153019.50;;;2.37;100.00
11888;BME280;6003;42.756;23.130;2023-03-04T05:07:03;153048.38;;;2.48;100.00
11888;BME280;6003;42.756;23.130;2023-03-04T05:09:30;153061.47;;;2.53;100.00
11888;BME280;6003;42.756;23.130;2023-03-04T05:11:57;153066.72;;;2.55;100.00
11888;BME280;6003;42.756;23.130;2023-03-04T05:14:24;153079.88;;;2.60;100.00
11888;BME280;6003;42.756;23.130;2023-03-04T05:16:52;153087.75;;;2.63;100.00
11888;BME280;6003;42.756;23.130;2023-03-04T05:19:19;153099.59;;;2.68;100.00
11888;BME280;6003;42.756;23.130;2023-03-04T05:21:51;153110.06;;;2.72;100.00
11888;BME280;6003;42.756;23.130;2023-03-04T05:24:19;153119.25;;;2.76;100.00
11888;BME280;6003;42.756;23.130;2023-03-04T05:26:46;153132.41;;;2.81;100.00
11888;BME280;6003;42.756;23.130;2023-03-04T05:29:12;153142.88;;;2.85;100.00
11888;BME280;6003;42.756;23.130;2023-03-04T05:31:39;153142.88;;;2.85;100.00
11888;BME280;6003;42.756;23.130;2023-03-04T05:34:07;153163.91;;;2.93;100.00
11888;BME280;6003;42.756;23.130;2023-03-04T05:36:34;153171.78;;;2.96;100.00
11888;BME280;6003;42.756;23.130;2023-03-04T05:39:01;153208.56;;;3.10;100.00
11888;BME280;6003;42.756;23.130;2023-03-04T05:41:28;153216.44;;;3.13;100.00
11888;BME280;6003;42.756;23.130;2023-03-04T05:43:55;153217.81;;;3.14;100.00
11888;BME280;6003;42.756;23.130;2023-03-04T05:46:22;153232.25;;;3.20;100.00
11888;BME280;6003;42.756;23.130;2023-03-04T05:48:50;153253.25;;;3.28;100.00
11888;BME280;6003;42.756;23.130;2023-03-04T05:51:19;153284.81;;;3.40;100.00
11888;BME280;6003;42.756;23.130;2023-03-04T05:53:46;153300.56;;;3.46;100.00
11888;BME280;6003;42.756;23.130;2023-03-04T05:56:15;153337.38;;;3.60;100.00
11888;BME280;6003;42.756;23.130;2023-03-04T05:58:43;153353.13;;;3.67;100.00
11888;BME280;6003;42.756;23.130;2023-03-04T06:01:12;153396.50;;;3.83;100.00
11888;BME280;6003;42.756;23.130;2023-03-04T06:03:39;153439.91;;;4.00;100.00
11888;BME280;6003;42.756;23.130;2023-03-04T06:06:07;153467.47;;;4.11;100.00
11888;BME280;6003;42.756;23.130;2023-03-04T06:08:35;153517.47;;;4.30;100.00
11888;BME280;6003;42.756;23.130;2023-03-04T06:11:02;153542.47;;;4.40;100.00
11888;BME280;6003;42.756;23.130;2023-03-04T06:13:30;153605.59;;;4.65;100.00
11888;BME280;6003;42.756;23.130;2023-03-04T06:15:58;153655.59;;;4.84;100.00
11888;BME280;6003;42.756;23.130;2023-03-04T06:18:25;153692.44;;;4.98;100.00
11888;BME280;6003;42.756;23.130;2023-03-04T06:20:55;153713.47;;;5.07;100.00
11888;BME280;6003;42.756;23.130;2023-03-04T06:23:22;153718.72;;;5.09;100.00
11888;BME280;6003;42.756;23.130;2023-03-04T06:25:52;153735.84;;;5.15;100.00
11888;BME280;6003;42.756;23.130;2023-03-04T06:28:20;153766.13;;;5.27;100.00
11888;BME280;6003;42.756;23.130;2023-03-04T06:30:47;153789.78;;;5.36;100.00
11888;BME280;6003;42.756;23.130;2023-03-04T06:33:14;153762.16;;;5.26;100.00
11888;BME280;6003;42.756;23.130;2023-03-04T06:35:40;153789.78;;;5.36;100.00
11888;BME280;6003;42.756;23.130;2023-03-04T06:38:07;153763.47;;;5.26;100.00
11888;BME280;6003;42.756;23.130;2023-03-04T06:40:34;153767.44;;;5.28;100.00
11888;BME280;6003;42.756;23.130;2023-03-04T06:43:02;153766.13;;;5.27;100.00
11888;BME280;6003;42.756;23.130;2023-03-04T06:45:29;153774.00;;;5.30;100.00
11888;BME280;6003;42.756;23.130;2023-03-04T06:47:56;153781.91;;;5.33;100.00
11888;BME280;6003;42.756;23.130;2023-03-04T06:50:23;153800.31;;;5.40;100.00
11888;BME280;6003;42.756;23.130;2023-03-04T06:52:50;153774.00;;;5.30;100.00
11888;BME280;6003;42.756;23.130;2023-03-04T06:55:17;153771.34;;;5.29;100.00
11888;BME280;6003;42.756;23.130;2023-03-04T06:57:43;153808.19;;;5.43;100.00
11888;BME280;6003;42.756;23.130;2023-03-04T07:00:13;153806.91;;;5.43;100.00
11888;BME280;6003;42.756;23.130;2023-03-04T07:02:40;153837.16;;;5.55;100.00
11888;BME280;6003;42.756;23.130;2023-03-04T07:05:08;153858.25;;;5.63;100.00
11888;BME280;6003;42.756;23.130;2023-03-04T07:07:35;153856.94;;;5.62;100.00
11888;BME280;6003;42.756;23.130;2023-03-04T07:10:03;153887.22;;;5.74;100.00
11888;BME280;6003;42.756;23.130;2023-03-04T07:12:30;153916.19;;;5.85;100.00
11888;BME280;6003;42.756;23.130;2023-03-04T07:14:57;153947.81;;;5.98;100.00
11888;BME280;6003;42.756;23.130;2023-03-04T07:17:25;153942.59;;;5.96;100.00
11888;BME280;6003;42.756;23.130;2023-03-04T07:19:52;153934.59;;;5.93;100.00
11888;BME280;6003;42.756;23.130;2023-03-04T07:22:18;153979.47;;;6.10;100.00
11888;BME280;6003;42.756;23.130;2023-03-04T07:24:45;154011.06;;;6.22;100.00
11888;BME280;6003;42.756;23.130;2023-03-04T07:27:12;153987.38;;;6.13;100.00
11888;BME280;6003;42.756;23.130;2023-03-04T07:29:39;153984.69;;;6.12;100.00
11888;BME280;6003;42.756;23.130;2023-03-04T07:32:06;153966.28;;;6.05;100.00
11888;BME280;6003;42.756;23.130;2023-03-04T07:34:35;153959.69;;;6.02;100.00
11888;BME280;6003;42.756;23.130;2023-03-04T07:37:02;153963.63;;;6.04;100.00
11888;BME280;6003;42.756;23.130;2023-03-04T07:39:29;153979.47;;;6.10;100.00
11888;BME280;6003;42.756;23.130;2023-03-04T07:41:56;153968.91;;;6.06;100.00
11888;BME280;6003;42.756;23.130;2023-03-04T07:44:22;153982.06;;;6.11;100.00
11888;BME280;6003;42.756;23.130;2023-03-04T07:46:49;153946.50;;;5.97;100.00
11888;BME280;6003;42.756;23.130;2023-03-04T07:49:16;153924.06;;;5.88;100.00
11888;BME280;6003;42.756;23.130;2023-03-04T07:51:52;153947.81;;;5.98;100.00
11888;BME280;6003;42.756;23.130;2023-03-04T07:54:19;153984.69;;;6.12;100.00
11888;BME280;6003;42.756;23.130;2023-03-04T07:56:46;154017.66;;;6.25;100.00
11888;BME280;6003;42.756;23.130;2023-03-04T07:59:13;154030.78;;;6.30;100.00
11888;BME280;6003;42.756;23.130;2023-03-04T08:01:39;154071.66;;;6.46;100.00
11888;BME280;6003;42.756;23.130;2023-03-04T08:04:06;154065.06;;;6.43;100.00
11888;BME280;6003;42.756;23.130;2023-03-04T08:06:34;154072.94;;;6.46;100.00
11888;BME280;6003;42.756;23.130;2023-03-04T08:09:03;154083.53;;;6.50;100.00
11888;BME280;6003;42.756;23.130;2023-03-04T08:11:34;154100.63;;;6.57;100.00
11888;BME280;6003;42.756;23.130;2023-03-04T08:14:02;154091.44;;;6.53;100.00
11888;BME280;6003;42.756;23.130;2023-03-04T08:16:29;154101.94;;;6.58;100.00
11888;BME280;6003;42.756;23.130;2023-03-04T08:18:59;154137.53;;;6.71;100.00
11888;BME280;6003;42.756;23.130;2023-03-04T08:21:27;154152.03;;;6.77;100.00
11888;BME280;6003;42.756;23.130;2023-03-04T08:23:56;154171.75;;;6.85;100.00
11888;BME280;6003;42.756;23.130;2023-03-04T08:26:27;154174.44;;;6.86;99.91
11888;BME280;6003;42.756;23.130;2023-03-04T08:28:55;154177.03;;;6.87;99.56
11888;BME280;6003;42.756;23.130;2023-03-04T08:31:33;154242.94;;;7.12;98.56
11888;BME280;6003;42.756;23.130;2023-03-04T08:34:01;154274.56;;;7.24;98.45
11888;BME280;6003;42.756;23.130;2023-03-04T08:36:28;154279.88;;;7.27;96.68
11888;BME280;6003;42.756;23.130;2023-03-04T08:38:55;154308.88;;;7.38;97.82
11888;BME280;6003;42.756;23.130;2023-03-04T08:41:22;154306.25;;;7.37;98.35
11888;BME280;6003;42.756;23.130;2023-03-04T08:43:52;154271.97;;;7.23;98.02
11888;BME280;6003;42.756;23.130;2023-03-04T08:46:19;154281.16;;;7.27;96.88
11888;BME280;6003;42.756;23.130;2023-03-04T08:48:45;154271.97;;;7.23;97.10
11888;BME280;6003;42.756;23.130;2023-03-04T08:51:25;154267.97;;;7.22;96.42
11888;BME280;6003;42.756;23.130;2023-03-04T08:53:52;154282.47;;;7.28;97.07
11888;BME280;6003;42.756;23.130;2023-03-04T08:56:19;154273.25;;;7.24;96.36
11888;BME280;6003;42.756;23.130;2023-03-04T08:58:46;154264.06;;;7.20;96.26
11888;BME280;6003;42.756;23.130;2023-03-04T09:01:14;154237.66;;;7.10;96.66
11888;BME280;6003;42.756;23.130;2023-03-04T09:03:42;154250.84;;;7.15;96.84
11888;BME280;6003;42.756;23.130;2023-03-04T09:06:13;154253.53;;;7.16;97.33
11888;BME280;6003;42.756;23.130;2023-03-04T09:08:40;154264.06;;;7.20;97.68
11888;BME280;6003;42.756;23.130;2023-03-04T09:11:08;154248.22;;;7.14;97.28
11888;BME280;6003;42.756;23.130;2023-03-04T09:13:35;154270.66;;;7.23;97.56
11888;BME280;6003;42.756;23.130;2023-03-04T09:16:08;154266.66;;;7.21;98.86
11888;BME280;6003;42.756;23.130;2023-03-04T09:18:37;154267.97;;;7.22;97.87
11888;BME280;6003;42.756;23.130;2023-03-04T09:21:05;154295.69;;;7.33;96.92
11888;BME280;6003;42.756;23.130;2023-03-04T09:23:32;154324.69;;;7.44;97.06
11888;BME280;6003;42.756;23.130;2023-03-04T09:25:59;154369.50;;;7.61;97.00
11888;BME280;6003;42.756;23.130;2023-03-04T09:28:26;154406.44;;;7.76;96.02
11888;BME280;6003;42.756;23.130;2023-03-04T09:30:53;154426.25;;;7.83;95.70
11888;BME280;6003;42.756;23.130;2023-03-04T09:33:20;154501.41;;;8.12;93.59
11888;BME280;6003;42.756;23.130;2023-03-04T09:35:48;154535.75;;;8.26;92.35
11888;BME280;6003;42.756;23.130;2023-03-04T09:38:15;154584.56;;;8.45;91.67
11888;BME280;6003;42.756;23.130;2023-03-04T09:40:43;154581.97;;;8.44;91.41
11888;BME280;6003;42.756;23.130;2023-03-04T09:43:17;154637.38;;;8.65;91.67
11888;BME280;6003;42.756;23.130;2023-03-04T09:45:48;154621.53;;;8.59;90.78
11888;BME280;6003;42.756;23.130;2023-03-04T09:48:20;154630.75;;;8.63;89.34
11888;BME280;6003;42.756;23.130;2023-03-04T09:51:00;154677.00;;;8.80;89.81
11888;BME280;6003;42.756;23.130;2023-03-04T09:53:39;154641.34;;;8.67;89.34
11888;BME280;6003;42.756;23.130;2023-03-04T09:56:09;154643.97;;;8.68;90.19
11888;BME280;6003;42.756;23.130;2023-03-04T09:58:44;154641.34;;;8.67;88.82
11888;BME280;6003;42.756;23.130;2023-03-04T10:01:19;154667.72;;;8.77;90.09
11888;BME280;6003;42.756;23.130;2023-03-04T10:03:50;154696.75;;;8.88;89.53
11888;BME280;6003;42.756;23.130;2023-03-04T10:06:22;154746.94;;;9.08;88.18
11888;BME280;6003;42.756;23.130;2023-03-04T10:08:53;154754.84;;;9.11;88.06
11888;BME280;6003;42.756;23.130;2023-03-04T10:11:24;154748.25;;;9.08;87.42
11888;BME280;6003;42.756;23.130;2023-03-04T10:13:59;154737.72;;;9.04;87.53
11888;BME280;6003;42.756;23.130;2023-03-04T10:16:31;154725.81;;;8.99;88.30
11888;BME280;6003;42.756;23.130;2023-03-04T10:19:08;154682.22;;;8.82;86.89
11888;BME280;6003;42.756;23.130;2023-03-04T10:21:45;154677.00;;;8.80;86.99
11888;BME280;6003;42.756;23.130;2023-03-04T10:24:13;154742.94;;;9.06;86.82
11888;BME280;6003;42.756;23.130;2023-03-04T10:26:44;154702.06;;;8.90;86.61
11888;BME280;6003;42.756;23.130;2023-03-04T10:29:15;154686.22;;;8.84;86.34
11888;BME280;6003;42.756;23.130;2023-03-04T10:31:46;154662.47;;;8.75;86.93
11888;BME280;6003;42.756;23.130;2023-03-04T10:34:15;154692.81;;;8.87;87.35
11888;BME280;6003;42.756;23.130;2023-03-04T10:36:49;154721.88;;;8.98;88.00
11888;BME280;6003;42.756;23.130;2023-03-04T10:39:21;154750.91;;;9.09;88.29
11888;BME280;6003;42.756;23.130;2023-03-04T10:41:58;154769.38;;;9.16;87.42
11888;BME280;6003;42.756;23.130;2023-03-04T10:44:26;154848.63;;;9.47;87.56
11888;BME280;6003;42.756;23.130;2023-03-04T10:46:54;154865.78;;;9.54;85.39
11888;BME280;6003;42.756;23.130;2023-03-04T10:49:22;154942.38;;;9.83;85.07
11888;BME280;6003;42.756;23.130;2023-03-04T10:51:53;154927.84;;;9.78;84.31
11888;BME280;6003;42.756;23.130;2023-03-04T10:54:27;154966.13;;;9.92;83.32
11888;BME280;6003;42.756;23.130;2023-03-04T10:56:58;154980.66;;;9.98;83.59
11888;BME280;6003;42.756;23.130;2023-03-04T10:59:42;154984.66;;;10.00;83.94
11888;BME280;6003;42.756;23.130;2023-03-04T11:02:19;154938.44;;;9.82;83.36
11888;BME280;6003;42.756;23.130;2023-03-04T11:05:06;154962.19;;;9.91;82.83
11888;BME280;6003;42.756;23.130;2023-03-04T11:07:39;154947.66;;;9.85;80.86
11888;BME280;6003;42.756;23.130;2023-03-04T11:10:07;154979.38;;;9.98;81.96
11888;BME280;6003;42.756;23.130;2023-03-04T11:12:35;154955.59;;;9.88;81.94
11888;BME280;6003;42.756;23.130;2023-03-04T11:15:03;154927.84;;;9.78;82.12
11888;BME280;6003;42.756;23.130;2023-03-04T11:17:42;154938.44;;;9.82;82.18
11888;BME280;6003;42.756;23.130;2023-03-04T11:20:13;155005.81;;;10.08;81.65
11888;BME280;6003;42.756;23.130;2023-03-04T11:22:45;154987.28;;;10.01;81.62
11888;BME280;6003;42.756;23.130;2023-03-04T11:25:23;155034.88;;;10.19;82.58
11888;BME280;6003;42.756;23.130;2023-03-04T11:27:54;155003.13;;;10.07;82.03
11888;BME280;6003;42.756;23.130;2023-03-04T11:30:32;154971.44;;;9.94;82.69
11888;BME280;6003;42.756;23.130;2023-03-04T11:33:09;154963.50;;;9.91;82.62
11888;BME280;6003;42.756;23.130;2023-03-04T11:35:44;154947.66;;;9.85;83.50
11888;BME280;6003;42.756;23.130;2023-03-04T11:38:19;154979.38;;;9.98;83.65
11888;BME280;6003;42.756;23.130;2023-03-04T11:40:50;154988.66;;;10.01;82.40
11888;BME280;6003;42.756;23.130;2023-03-04T11:43:22;155003.13;;;10.07;82.93
11888;BME280;6003;42.756;23.130;2023-03-04T11:46:33;155099.66;;;10.44;84.52
11888;BME280;6003;42.756;23.130;2023-03-04T11:49:18;155091.72;;;10.41;80.56
11888;BME280;6003;42.756;23.130;2023-03-04T11:51:56;155108.94;;;10.48;80.70
11888;BME280;6003;42.756;23.130;2023-03-04T11:54:31;155050.72;;;10.25;80.23
11888;BME280;6003;42.756;23.130;2023-03-04T11:57:05;155049.41;;;10.25;81.24
11888;BME280;6003;42.756;23.130;2023-03-04T11:59:47;155053.34;;;10.26;81.07
11888;BME280;6003;42.756;23.130;2023-03-04T12:02:17;155046.75;;;10.24;82.48
11888;BME280;6003;42.756;23.130;2023-03-04T12:05:12;155045.44;;;10.23;81.54
11888;BME280;6003;42.756;23.130;2023-03-04T12:07:54;155020.34;;;10.13;81.09
11888;BME280;6003;42.756;23.130;2023-03-04T12:10:28;154964.81;;;9.92;81.65
11888;BME280;6003;42.756;23.130;2023-03-04T12:13:20;154945.03;;;9.84;81.78
11888;BME280;6003;42.756;23.130;2023-03-04T12:15:59;154918.59;;;9.74;81.79
11888;BME280;6003;42.756;23.130;2023-03-04T12:18:40;154937.13;;;9.81;82.61
11888;BME280;6003;42.756;23.130;2023-03-04T12:21:24;154934.44;;;9.80;83.10
11888;BME280;6003;42.756;23.130;2023-03-04T12:24:17;154927.84;;;9.78;83.42
11888;BME280;6003;42.756;23.130;2023-03-04T12:26:50;154908.06;;;9.70;82.87
11888;BME280;6003;42.756;23.130;2023-03-04T12:29:27;154951.66;;;9.87;82.47
11888;BME280;6003;42.756;23.130;2023-03-04T12:32:03;154948.97;;;9.86;83.18
11888;BME280;6003;42.756;23.130;2023-03-04T12:34:41;154934.44;;;9.80;82.09
11888;BME280;6003;42.756;23.130;2023-03-04T12:37:31;154958.22;;;9.89;83.24
11888;BME280;6003;42.756;23.130;2023-03-04T12:40:20;154971.44;;;9.94;82.67
11888;BME280;6003;42.756;23.130;2023-03-04T12:43:03;154997.88;;;10.05;82.73
11888;BME280;6003;42.756;23.130;2023-03-04T12:45:40;154968.81;;;9.93;82.99
11888;BME280;6003;42.756;23.130;2023-03-04T12:48:18;154952.97;;;9.87;82.03
11888;BME280;6003;42.756;23.130;2023-03-04T12:50:54;154931.81;;;9.79;82.56
11888;BME280;6003;42.756;23.130;2023-03-04T12:53:26;154918.59;;;9.74;83.11
11888;BME280;6003;42.756;23.130;2023-03-04T12:55:56;154931.81;;;9.79;83.51
11888;BME280;6003;42.756;23.130;2023-03-04T12:58:26;154918.59;;;9.74;82.95
11888;BME280;6003;42.756;23.130;2023-03-04T13:00:59;154917.28;;;9.74;83.20
11888;BME280;6003;42.756;23.130;2023-03-04T13:03:37;154908.06;;;9.70;82.85
11888;BME280;6003;42.756;23.130;2023-03-04T13:06:26;154865.78;;;9.54;84.33